createdAt,value
2023-04-02T00:00:30.055Z,15.00
2023-04-02T00:03:04.455Z,12.60
2023-04-02T00:05:50.719Z,10.50
2023-04-02T00:08:20.443Z,8.80
2023-04-02T00:10:51.973Z,9.90
2023-04-02T00:13:18.686Z,10.80
2023-04-02T00:15:50.028Z,8.10
2023-04-02T00:18:18.373Z,10.00
2023-04-02T00:20:47.885Z,10.20
2023-04-02T00:23:14.938Z,9.10
2023-04-02T00:25:45.793Z,8.60
2023-04-02T00:28:14.708Z,10.40
2023-04-02T00:30:47.645Z,6.80
2023-04-02T00:33:16.415Z,8.00
2023-04-02T00:35:43.303Z,8.60
2023-04-02T00:38:18.045Z,9.10
2023-04-02T00:40:46.103Z,10.70
2023-04-02T00:43:16.718Z,10.80
2023-04-02T00:45:50.838Z,9.70
2023-04-02T00:48:23.715Z,8.50
2023-04-02T00:50:51.106Z,7.70
2023-04-02T00:53:22.353Z,8.30
2023-04-02T00:55:49.135Z,8.20
2023-04-02T00:58:36.624Z,8.30
2023-04-02T01:01:04.755Z,7.10
2023-04-02T01:03:37.589Z,8.50
2023-04-02T01:06:10.927Z,10.50
2023-04-02T01:08:53.156Z,8.90
2023-04-02T01:11:19.851Z,10.60
2023-04-02T01:14:02.197Z,11.50
2023-04-02T01:16:32.323Z,9.70
2023-04-02T01:19:04.556Z,11.20
2023-04-02T01:21:53.950Z,11.10
2023-04-02T01:24:21.411Z,11.80
2023-04-02T01:27:08.310Z,10.80
2023-04-02T01:29:39.197Z,9.60
2023-04-02T01:32:07.712Z,11.00
2023-04-02T01:34:34.968Z,10.00
2023-04-02T01:37:01.943Z,11.80
2023-04-02T01:39:28.742Z,10.80
2023-04-02T01:42:13.877Z,13.30
2023-04-02T01:44:46.481Z,10.50
2023-04-02T01:47:15.042Z,10.70
2023-04-02T01:49:42.752Z,11.90
2023-04-02T01:52:12.728Z,11.90
2023-04-02T01:54:40.826Z,12.10
2023-04-02T01:57:08.063Z,13.80
2023-04-02T01:59:35.879Z,12.80
2023-04-02T02:02:05.941Z,16.20
2023-04-02T02:04:34.560Z,12.20
2023-04-02T02:07:02.110Z,11.30
2023-04-02T02:09:30.802Z,12.00
2023-04-02T02:11:58.875Z,14.40
2023-04-02T02:14:27.321Z,13.50
2023-04-02T02:16:56.728Z,12.60
2023-04-02T02:19:23.545Z,12.60
2023-04-02T02:21:52.495Z,12.00
2023-04-02T02:24:19.271Z,11.60
2023-04-02T02:26:48.275Z,13.30
2023-04-02T02:29:17.886Z,14.30
2023-04-02T02:31:47.374Z,12.40
2023-04-02T02:34:20.886Z,13.00
2023-04-02T02:36:50.854Z,12.60
2023-04-02T02:39:33.331Z,12.00
2023-04-02T02:42:00.396Z,27.40
2023-04-02T02:44:28.802Z,32.60
2023-04-02T02:47:03.565Z,40.70
2023-04-02T02:49:36.210Z,26.30
2023-04-02T02:52:03.666Z,11.30
2023-04-02T02:54:38.345Z,9.20
2023-04-02T02:57:07.945Z,10.00
2023-04-02T02:59:34.983Z,9.60
2023-04-02T03:02:02.731Z,11.20
2023-04-02T03:04:30.810Z,8.50
2023-04-02T03:06:58.571Z,8.50
2023-04-02T03:09:35.047Z,9.50
2023-04-02T03:12:08.714Z,8.70
2023-04-02T03:14:43.358Z,8.90
2023-04-02T03:17:13.362Z,8.00
2023-04-02T03:19:41.036Z,9.50
2023-04-02T03:22:21.464Z,7.00
2023-04-02T03:24:58.524Z,6.60
2023-04-02T03:27:32.232Z,8.80
2023-04-02T03:29:59.193Z,7.40
2023-04-02T03:32:29.031Z,9.10
2023-04-02T03:35:35.488Z,7.60
2023-04-02T03:38:06.500Z,9.40
2023-04-02T03:40:39.408Z,9.50
2023-04-02T03:43:13.176Z,10.00
2023-04-02T03:45:41.652Z,8.30
2023-04-02T03:48:12.709Z,10.50
2023-04-02T03:50:45.552Z,7.50
2023-04-02T03:53:12.632Z,8.10
2023-04-02T03:55:41.166Z,7.00
2023-04-02T03:58:11.834Z,8.60
2023-04-02T04:00:51.132Z,6.30
2023-04-02T04:03:26.985Z,8.50
2023-04-02T04:06:14.378Z,6.90
2023-04-02T04:08:46.976Z,6.90
2023-04-02T04:11:15.797Z,6.00
2023-04-02T04:13:49.497Z,7.60
2023-04-02T04:16:19.109Z,7.40
2023-04-02T04:19:21.983Z,5.90
2023-04-02T04:21:49.235Z,6.30
2023-04-02T04:24:23.242Z,6.30
2023-04-02T04:27:09.621Z,6.90
2023-04-02T04:29:40.817Z,5.40
2023-04-02T04:32:13.062Z,6.60
2023-04-02T04:34:46.772Z,7.30
2023-04-02T04:37:21.935Z,7.80
2023-04-02T04:40:02.086Z,6.40
2023-04-02T04:42:31.938Z,7.30
2023-04-02T04:45:03.910Z,7.80
2023-04-02T04:47:43.890Z,6.90
2023-04-02T04:50:21.415Z,9.40
2023-04-02T04:52:48.214Z,7.00
2023-04-02T04:55:38.705Z,8.60
2023-04-02T04:58:14.026Z,5.90
2023-04-02T05:00:44.246Z,8.20
2023-04-02T05:03:20.791Z,6.50
2023-04-02T05:05:48.148Z,5.80
2023-04-02T05:08:19.472Z,7.00
2023-04-02T05:10:52.338Z,11.40
2023-04-02T05:13:31.880Z,8.40
2023-04-02T05:16:23.028Z,7.80
2023-04-02T05:18:56.094Z,9.40
2023-04-02T05:21:38.018Z,20.30
2023-04-02T05:24:17.280Z,12.50
2023-04-02T05:26:46.850Z,10.50
2023-04-02T05:29:20.697Z,15.10
2023-04-02T05:32:10.949Z,13.00
2023-04-02T05:34:39.529Z,9.40
2023-04-02T05:37:09.265Z,9.10
2023-04-02T05:39:36.663Z,9.50
2023-04-02T05:42:08.435Z,8.30
2023-04-02T05:45:00.276Z,7.80
2023-04-02T05:47:29.598Z,6.40
2023-04-02T05:50:10.523Z,5.90
2023-04-02T05:52:44.979Z,6.50
2023-04-02T05:55:12.362Z,6.10
2023-04-02T05:57:52.871Z,6.30
2023-04-02T06:00:38.796Z,5.30
2023-04-02T06:03:27.383Z,5.10
2023-04-02T06:05:58.079Z,6.00
2023-04-02T06:08:30.503Z,6.30
2023-04-02T06:11:04.306Z,8.10
2023-04-02T06:13:31.199Z,6.30
2023-04-02T06:15:58.784Z,8.30
2023-04-02T06:18:31.433Z,7.20
2023-04-02T06:20:59.214Z,6.80
2023-04-02T06:23:40.187Z,6.70
2023-04-02T06:26:07.747Z,6.40
2023-04-02T06:28:45.531Z,6.90
2023-04-02T06:31:33.284Z,5.20
2023-04-02T06:34:03.850Z,6.60
2023-04-02T06:36:33.032Z,6.30
2023-04-02T06:39:06.869Z,5.80
2023-04-02T06:41:33.959Z,7.70
2023-04-02T06:44:21.650Z,6.20
2023-04-02T06:47:21.560Z,7.20
2023-04-02T06:49:52.438Z,9.20
2023-04-02T06:52:48.633Z,7.70
2023-04-02T06:55:21.807Z,7.90
2023-04-02T06:57:48.966Z,8.40
2023-04-02T07:00:23.973Z,8.40
2023-04-02T07:02:51.677Z,9.30
2023-04-02T07:05:18.438Z,20.40
2023-04-02T07:07:47.406Z,11.90
2023-04-02T07:10:14.658Z,8.60
2023-04-02T07:12:41.591Z,9.20
2023-04-02T07:15:11.201Z,10.50
2023-04-02T07:17:38.006Z,8.10
2023-04-02T07:20:04.981Z,18.80
2023-04-02T07:22:32.083Z,9.10
2023-04-02T07:25:01.205Z,7.60
2023-04-02T07:27:28.126Z,10.00
2023-04-02T07:29:54.869Z,5.40
2023-04-02T07:32:21.583Z,7.50
2023-04-02T07:34:49.085Z,6.60
2023-04-02T07:37:15.891Z,6.00
2023-04-02T07:39:42.617Z,7.50
2023-04-02T07:42:09.939Z,7.20
2023-04-02T07:44:36.685Z,7.60
2023-04-02T07:47:03.531Z,7.70
2023-04-02T07:49:30.417Z,9.70
2023-04-02T07:51:57.227Z,9.10
2023-04-02T07:54:23.899Z,8.70
2023-04-02T07:56:50.841Z,7.10
2023-04-02T07:59:17.706Z,5.80
2023-04-02T08:01:44.587Z,6.80
2023-04-02T08:04:17.012Z,8.40
2023-04-02T08:06:43.813Z,9.00
2023-04-02T08:09:10.553Z,9.00
2023-04-02T08:11:37.450Z,9.10
2023-04-02T08:14:04.250Z,7.80
2023-04-02T08:16:44.057Z,25.80
2023-04-02T08:19:10.865Z,17.50
2023-04-02T08:21:37.604Z,13.60
2023-04-02T08:24:04.391Z,10.60
2023-04-02T08:26:31.328Z,19.20
2023-04-02T08:28:58.113Z,9.90
2023-04-02T08:31:24.971Z,7.90
2023-04-02T08:33:51.992Z,8.00
2023-04-02T08:36:20.174Z,12.70
2023-04-02T08:38:47.343Z,10.00
2023-04-02T08:41:22.029Z,8.70
2023-04-02T08:44:08.577Z,8.70
2023-04-02T08:46:38.519Z,8.60
2023-04-02T08:49:11.602Z,10.00
2023-04-02T08:51:38.537Z,7.90
2023-04-02T08:54:11.464Z,8.50
2023-04-02T08:56:48.619Z,13.20
2023-04-02T08:59:27.303Z,11.70
2023-04-02T09:02:12.898Z,9.40
2023-04-02T09:04:41.694Z,7.60
2023-04-02T09:07:12.345Z,7.10
2023-04-02T09:09:39.139Z,7.30
2023-04-02T09:12:07.400Z,6.10
2023-04-02T09:14:34.114Z,5.40
2023-04-02T09:17:02.203Z,4.40
2023-04-02T09:19:40.913Z,4.60
2023-04-02T09:22:09.022Z,5.50
2023-04-02T09:24:36.722Z,4.00
2023-04-02T09:27:04.054Z,3.80
2023-04-02T09:29:33.886Z,6.40
2023-04-02T09:32:06.642Z,5.00
2023-04-02T09:34:34.997Z,4.10
2023-04-02T09:37:15.075Z,4.10
2023-04-02T09:39:42.126Z,4.00
2023-04-02T09:42:28.035Z,3.60
2023-04-02T09:45:12.121Z,3.80
2023-04-02T09:47:40.927Z,3.70
2023-04-02T09:50:15.436Z,4.40
2023-04-02T09:52:42.270Z,4.30
2023-04-02T09:55:15.532Z,7.70
2023-04-02T09:57:42.800Z,5.20
2023-04-02T10:00:21.870Z,4.60
2023-04-02T10:03:03.812Z,5.30
2023-04-02T10:05:40.444Z,3.50
2023-04-02T10:08:19.813Z,3.80
2023-04-02T10:10:49.142Z,4.00
2023-04-02T10:13:34.749Z,3.80
2023-04-02T10:16:09.564Z,5.30
2023-04-02T10:18:41.596Z,4.40
2023-04-02T10:21:10.461Z,3.60
2023-04-02T10:23:37.199Z,5.20
2023-04-02T10:26:03.897Z,4.00
2023-04-02T10:28:50.843Z,3.70
2023-04-02T10:31:25.523Z,5.10
2023-04-02T10:33:58.276Z,3.60
2023-04-02T10:36:43.080Z,4.60
2023-04-02T10:39:16.121Z,4.30
2023-04-02T10:41:57.244Z,5.10
2023-04-02T10:44:39.380Z,3.80
2023-04-02T10:47:09.324Z,3.10
2023-04-02T10:49:42.144Z,3.20
2023-04-02T10:52:09.074Z,3.70
2023-04-02T10:54:36.538Z,3.40
2023-04-02T10:57:08.243Z,3.50
2023-04-02T10:59:37.556Z,3.80
2023-04-02T11:02:22.600Z,2.60
2023-04-02T11:04:50.992Z,3.00
2023-04-02T11:07:20.721Z,2.70
2023-04-02T11:09:48.873Z,3.20
2023-04-02T11:12:21.612Z,2.80
2023-04-02T11:14:49.657Z,2.70
2023-04-02T11:17:17.466Z,3.80
2023-04-02T11:19:44.464Z,3.00
2023-04-02T11:22:20.637Z,3.50
2023-04-02T11:24:51.683Z,3.00
2023-04-02T11:27:18.380Z,2.20
2023-04-02T11:29:53.804Z,2.90
2023-04-02T11:32:20.809Z,4.40
2023-04-02T11:35:02.990Z,2.70
2023-04-02T11:37:44.015Z,3.00
2023-04-02T11:40:11.099Z,2.40
2023-04-02T11:42:40.534Z,2.20
2023-04-02T11:45:28.705Z,1.80
2023-04-02T11:48:02.299Z,2.40
2023-04-02T11:50:29.598Z,2.00
2023-04-02T11:52:59.845Z,1.20
2023-04-02T11:55:34.388Z,2.00
2023-04-02T11:58:11.088Z,2.20
2023-04-02T12:00:47.772Z,2.70
2023-04-02T12:03:32.283Z,1.90
2023-04-02T12:06:18.875Z,1.50
2023-04-02T12:08:57.967Z,2.90
2023-04-02T12:11:32.850Z,2.00
2023-04-02T12:14:00.216Z,1.60
2023-04-02T12:16:31.536Z,2.80
2023-04-02T12:18:59.466Z,2.40
2023-04-02T12:21:27.598Z,2.40
2023-04-02T12:24:00.980Z,3.50
2023-04-02T12:26:30.437Z,2.30
2023-04-02T12:29:17.534Z,3.00
2023-04-02T12:31:47.884Z,1.80
2023-04-02T12:34:20.374Z,1.90
2023-04-02T12:36:54.108Z,1.90
2023-04-02T12:39:21.568Z,3.10
2023-04-02T12:41:48.677Z,1.90
2023-04-02T12:44:21.927Z,2.50
2023-04-02T12:46:49.307Z,2.10
2023-04-02T12:49:35.024Z,2.40
2023-04-02T12:52:03.852Z,1.50
2023-04-02T12:54:32.216Z,2.60
2023-04-02T12:57:19.005Z,2.60
2023-04-02T12:59:45.955Z,2.00
2023-04-02T13:02:20.378Z,1.90
2023-04-02T13:04:51.956Z,2.00
2023-04-02T13:07:20.289Z,1.80
2023-04-02T13:09:49.594Z,2.30
2023-04-02T13:12:25.698Z,2.50
2023-04-02T13:14:54.350Z,2.40
2023-04-02T13:17:40.029Z,1.90
2023-04-02T13:20:25.413Z,3.00
2023-04-02T13:22:52.296Z,2.90
2023-04-02T13:25:19.142Z,1.40
2023-04-02T13:27:46.109Z,1.90
2023-04-02T13:30:19.976Z,2.10
2023-04-02T13:32:46.774Z,5.00
2023-04-02T13:35:13.719Z,3.70
2023-04-02T13:37:40.784Z,2.80
2023-04-02T13:40:09.253Z,2.40
2023-04-02T13:42:37.163Z,3.80
2023-04-02T13:45:04.400Z,5.00
2023-04-02T13:47:31.156Z,2.30
2023-04-02T13:50:03.445Z,3.00
2023-04-02T13:52:30.765Z,1.40
2023-04-02T13:55:01.398Z,1.10
2023-04-02T13:57:28.151Z,2.00
2023-04-02T13:59:56.089Z,2.50
2023-04-02T14:02:24.761Z,1.50
2023-04-02T14:04:53.579Z,2.10
2023-04-02T14:07:20.379Z,2.20
2023-04-02T14:09:59.799Z,4.00
2023-04-02T14:12:35.790Z,3.40
2023-04-02T14:15:19.333Z,3.80
2023-04-02T14:17:47.785Z,3.40
2023-04-02T14:20:30.466Z,3.90
2023-04-02T14:23:07.143Z,3.00
2023-04-02T14:25:43.611Z,3.20
2023-04-02T14:28:17.325Z,3.10
2023-04-02T14:30:53.554Z,1.90
2023-04-02T14:33:33.113Z,1.70
2023-04-02T14:36:06.817Z,1.30
2023-04-02T14:38:43.889Z,1.30
2023-04-02T14:41:14.354Z,2.70
2023-04-02T14:43:44.345Z,1.90
2023-04-02T14:46:11.554Z,1.00
2023-04-02T14:48:45.153Z,1.20
2023-04-02T14:51:18.934Z,2.10
2023-04-02T14:53:46.336Z,2.50
2023-04-02T14:56:15.356Z,2.70
2023-04-02T14:58:49.602Z,2.00
2023-04-02T15:01:19.856Z,1.80
2023-04-02T15:03:53.899Z,2.20
2023-04-02T15:06:24.409Z,2.50
2023-04-02T15:09:09.011Z,2.60
2023-04-02T15:11:40.335Z,2.40
2023-04-02T15:14:19.776Z,3.40
2023-04-02T15:16:46.800Z,3.00
2023-04-02T15:19:15.788Z,2.90
2023-04-02T15:22:06.984Z,3.10
2023-04-02T15:24:49.012Z,3.60
2023-04-02T15:27:34.385Z,3.10
2023-04-02T15:30:12.621Z,3.80
2023-04-02T15:32:40.512Z,3.50
2023-04-02T15:35:11.045Z,3.30
2023-04-02T15:37:44.327Z,4.40
2023-04-02T15:40:30.606Z,3.30
2023-04-02T15:43:06.750Z,4.10
2023-04-02T15:45:41.129Z,4.70
2023-04-02T15:48:28.998Z,3.00
2023-04-02T15:51:05.075Z,3.70
2023-04-02T15:53:44.049Z,3.70
2023-04-02T15:56:26.688Z,4.40
2023-04-02T15:59:03.223Z,3.90
2023-04-02T16:01:30.483Z,2.60
2023-04-02T16:04:18.096Z,2.80
2023-04-02T16:06:57.402Z,3.00
2023-04-02T16:09:24.556Z,4.20
2023-04-02T16:11:56.563Z,3.30
2023-04-02T16:14:31.475Z,2.40
2023-04-02T16:17:03.979Z,2.50
2023-04-02T16:19:35.334Z,1.80
2023-04-02T16:22:16.516Z,2.10
2023-04-02T16:24:43.711Z,2.50
2023-04-02T16:27:17.251Z,2.40
2023-04-02T16:29:53.938Z,1.80
2023-04-02T16:32:36.255Z,2.20
2023-04-02T16:35:41.190Z,2.00
2023-04-02T16:38:12.495Z,1.80
2023-04-02T16:41:08.333Z,2.60
2023-04-02T16:43:57.952Z,3.20
2023-04-02T16:46:38.797Z,2.60
2023-04-02T16:49:27.458Z,2.60
2023-04-02T16:51:58.592Z,3.50
2023-04-02T16:54:26.550Z,3.20
2023-04-02T16:56:54.389Z,2.60
2023-04-02T16:59:27.859Z,2.60
2023-04-02T17:02:27.100Z,2.30
2023-04-02T17:05:02.637Z,9.20
2023-04-02T17:07:30.179Z,5.10
2023-04-02T17:10:19.947Z,3.00
2023-04-02T17:12:48.744Z,4.70
2023-04-02T17:17:55.423Z,10.90
2023-04-02T17:20:24.745Z,13.50
2023-04-02T17:22:53.579Z,24.20
2023-04-02T17:25:26.636Z,12.40
2023-04-02T17:27:55.704Z,6.40
2023-04-02T17:30:35.125Z,7.60
2023-04-02T17:33:06.369Z,7.10
2023-04-02T17:35:52.368Z,6.50
2023-04-02T17:38:41.662Z,2.90
2023-04-02T17:41:24.902Z,2.10
2023-04-02T17:43:52.808Z,4.30
2023-04-02T17:46:32.036Z,5.80
2023-04-02T17:49:18.596Z,5.20
2023-04-02T17:51:52.847Z,6.50
2023-04-02T17:54:20.542Z,6.60
2023-04-02T17:56:51.622Z,3.70
2023-04-02T17:59:37.634Z,2.30
2023-04-02T18:02:21.448Z,2.90
2023-04-02T18:05:01.694Z,3.60
2023-04-02T18:07:38.697Z,5.80
2023-04-02T18:10:06.242Z,3.70
2023-04-02T18:12:40.814Z,2.40
2023-04-02T18:15:36.291Z,13.20
2023-04-02T18:18:09.771Z,4.90
2023-04-02T18:20:40.243Z,3.40
2023-04-02T18:23:28.913Z,8.30
2023-04-02T18:26:06.752Z,8.00
2023-04-02T18:28:41.968Z,9.60
2023-04-02T18:31:12.809Z,4.60
2023-04-02T18:34:03.201Z,5.60
2023-04-02T18:36:38.591Z,4.50
2023-04-02T18:39:18.363Z,5.10
2023-04-02T18:42:08.855Z,3.20
2023-04-02T18:44:47.032Z,3.00
2023-04-02T18:47:33.523Z,2.20
2023-04-02T18:50:13.298Z,1.60
2023-04-02T18:52:42.923Z,1.70
2023-04-02T18:55:30.281Z,2.00
2023-04-02T18:58:10.506Z,1.30
2023-04-02T19:00:42.350Z,1.70
2023-04-02T19:03:28.841Z,1.40
2023-04-02T19:06:01.884Z,2.60
2023-04-02T19:08:32.913Z,2.30
2023-04-02T19:11:04.718Z,1.90
2023-04-02T19:13:32.917Z,1.00
2023-04-02T19:16:19.472Z,1.50
2023-04-02T19:19:05.580Z,2.10
2023-04-02T19:21:43.438Z,1.70
2023-04-02T19:24:14.466Z,1.60
2023-04-02T19:26:55.575Z,1.50
2023-04-02T19:29:32.760Z,1.60
2023-04-02T19:32:06.983Z,1.60
2023-04-02T19:34:45.404Z,1.30
2023-04-02T19:37:23.322Z,1.60
2023-04-02T19:39:59.094Z,1.70
2023-04-02T19:42:45.836Z,4.80
2023-04-02T19:45:32.095Z,2.90
2023-04-02T19:48:01.797Z,2.50
2023-04-02T19:50:30.203Z,2.40
2023-04-02T19:52:58.826Z,2.60
2023-04-02T19:55:27.564Z,2.90
2023-04-02T19:58:08.381Z,3.70
2023-04-02T20:00:44.605Z,2.80
2023-04-02T20:03:13.896Z,2.60
2023-04-02T20:05:41.322Z,3.30
2023-04-02T20:08:10.289Z,3.00
2023-04-02T20:10:38.274Z,3.30
2023-04-02T20:13:06.849Z,3.60
2023-04-02T20:15:34.833Z,3.40
2023-04-02T20:18:02.582Z,3.50
2023-04-02T20:20:29.861Z,5.20
2023-04-02T20:22:57.234Z,3.30
2023-04-02T20:25:25.044Z,4.40
2023-04-02T20:27:52.913Z,3.70
2023-04-02T20:30:20.480Z,4.20
2023-04-02T20:32:47.474Z,3.90
2023-04-02T20:35:14.584Z,3.60
2023-04-02T20:37:42.148Z,4.10
2023-04-02T20:40:10.112Z,3.60
2023-04-02T20:42:37.697Z,3.60
2023-04-02T20:45:06.273Z,4.20
2023-04-02T20:47:33.726Z,4.30
2023-04-02T20:50:00.562Z,3.80
2023-04-02T20:52:30.262Z,5.30
2023-04-02T20:54:57.512Z,4.10
2023-04-02T20:57:26.204Z,3.70
2023-04-02T20:59:54.789Z,3.50
2023-04-02T21:02:21.559Z,3.80
2023-04-02T21:04:48.395Z,5.00
2023-04-02T21:07:15.579Z,3.90
2023-04-02T21:09:42.299Z,5.00
2023-04-02T21:12:09.030Z,5.80
2023-04-02T21:14:38.940Z,4.20
2023-04-02T21:17:07.416Z,5.60
2023-04-02T21:19:34.484Z,4.80
2023-04-02T21:22:01.467Z,4.20
2023-04-02T21:24:28.221Z,4.70
2023-04-02T21:26:54.974Z,5.20
2023-04-02T21:29:21.760Z,4.40
2023-04-02T21:31:48.616Z,5.60
2023-04-02T21:34:16.434Z,5.30
2023-04-02T21:36:44.271Z,4.30
2023-04-02T21:39:12.601Z,5.70
2023-04-02T21:41:40.644Z,6.10
2023-04-02T21:44:08.449Z,5.30
2023-04-02T21:46:36.704Z,5.30
2023-04-02T21:49:03.530Z,6.30
2023-04-02T21:51:31.667Z,4.90
2023-04-02T21:53:58.592Z,4.50
2023-04-02T21:56:30.212Z,5.10
2023-04-02T21:58:57.354Z,5.80
2023-04-02T22:01:28.027Z,5.50
2023-04-02T22:03:55.615Z,5.80
2023-04-02T22:06:23.078Z,4.90
2023-04-02T22:08:56.971Z,5.60
2023-04-02T22:11:25.469Z,4.40
2023-04-02T22:13:52.522Z,5.60
2023-04-02T22:16:20.937Z,5.40
2023-04-02T22:18:48.257Z,4.00
2023-04-02T22:21:15.483Z,5.60
2023-04-02T22:23:42.677Z,3.90
2023-04-02T22:26:10.337Z,5.50
2023-04-02T22:28:37.678Z,4.00
2023-04-02T22:31:15.123Z,4.80
2023-04-02T22:33:42.720Z,5.20
2023-04-02T22:36:09.901Z,5.40
2023-04-02T22:38:36.977Z,5.20
2023-04-02T22:41:04.999Z,5.30
2023-04-02T22:43:31.885Z,4.30
2023-04-02T22:45:58.735Z,4.50
2023-04-02T22:48:25.684Z,6.10
2023-04-02T22:50:52.868Z,4.40
2023-04-02T22:53:20.078Z,4.10
2023-04-02T22:55:46.840Z,4.70
2023-04-02T22:58:13.612Z,4.20
2023-04-02T23:00:41.153Z,5.00
2023-04-02T23:03:08.060Z,4.80
2023-04-02T23:05:34.753Z,4.20
2023-04-02T23:08:01.719Z,4.20
2023-04-02T23:10:29.097Z,5.90
2023-04-02T23:12:57.617Z,4.10
2023-04-02T23:15:24.412Z,4.20
2023-04-02T23:17:51.201Z,3.90
2023-04-02T23:20:18.014Z,4.70
2023-04-02T23:22:44.978Z,4.30
2023-04-02T23:25:11.849Z,3.90
2023-04-02T23:27:38.688Z,4.00
2023-04-02T23:30:06.632Z,4.60
2023-04-02T23:32:33.537Z,4.30
2023-04-02T23:35:00.365Z,4.80
2023-04-02T23:37:27.149Z,5.00
2023-04-02T23:39:53.865Z,4.10
2023-04-02T23:42:20.639Z,4.50
2023-04-02T23:44:47.388Z,3.90
2023-04-02T23:47:14.100Z,3.90
2023-04-02T23:49:42.239Z,3.80
2023-04-02T23:52:08.995Z,3.80
2023-04-02T23:54:36.971Z,3.00
2023-04-02T23:57:03.744Z,3.30
2023-04-02T23:59:30.621Z,3.70
